createdAt,value
2023-03-14T00:00:11.680Z,99059.25
2023-03-14T00:02:38.908Z,99054.16
2023-03-14T00:05:07.604Z,99072.94
2023-03-14T00:07:36.342Z,99079.03
2023-03-14T00:10:05.409Z,99076.38
2023-03-14T00:12:32.877Z,99071.66
2023-03-14T00:15:01.178Z,99064.53
2023-03-14T00:17:28.265Z,99063.50
2023-03-14T00:19:55.031Z,99060.16
2023-03-14T00:22:22.465Z,99058.94
2023-03-14T00:24:49.384Z,99049.84
2023-03-14T00:27:15.910Z,99055.53
2023-03-14T00:29:44.404Z,99045.50
2023-03-14T00:32:11.024Z,99043.31
2023-03-14T00:34:37.499Z,99049.22
2023-03-14T00:37:04.025Z,99058.94
2023-03-14T00:39:30.559Z,99063.22
2023-03-14T00:41:57.094Z,99058.94
2023-03-14T00:44:23.638Z,99074.06
2023-03-14T00:46:50.229Z,99068.66
2023-03-14T00:49:16.884Z,99067.03
2023-03-14T00:51:43.363Z,99062.41
2023-03-14T00:54:09.904Z,99061.38
2023-03-14T00:56:36.402Z,99058.94
2023-03-14T00:59:02.879Z,99061.16
2023-03-14T01:01:29.439Z,99065.53
2023-03-14T01:03:57.041Z,99062.28
2023-03-14T01:06:28.748Z,99068.38
2023-03-14T01:08:56.333Z,99074.09
2023-03-14T01:11:26.060Z,99082.31
2023-03-14T01:13:53.229Z,99077.06
2023-03-14T01:16:21.277Z,99087.34
2023-03-14T01:18:49.166Z,99085.44
2023-03-14T01:21:27.613Z,99093.69
2023-03-14T01:23:55.977Z,99106.81
2023-03-14T01:26:25.513Z,99103.88
2023-03-14T01:28:54.137Z,99101.28
2023-03-14T01:31:20.884Z,99105.50
2023-03-14T01:33:47.888Z,99098.63
2023-03-14T01:36:14.685Z,99097.88
2023-03-14T01:38:41.858Z,99102.00
2023-03-14T01:41:14.329Z,99087.38
2023-03-14T01:43:40.848Z,99093.47
2023-03-14T01:46:07.304Z,99087.59
2023-03-14T01:48:38.252Z,99079.72
2023-03-14T01:51:07.681Z,99080.50
2023-03-14T01:53:35.467Z,99077.66
2023-03-14T01:56:04.721Z,99077.28
2023-03-14T01:58:35.309Z,99064.84
2023-03-14T02:01:02.987Z,99061.38
2023-03-14T02:03:31.843Z,99054.47
2023-03-14T02:06:04.760Z,99057.94
2023-03-14T02:08:32.243Z,99059.78
2023-03-14T02:10:58.859Z,99072.97
2023-03-14T02:13:25.466Z,99073.75
2023-03-14T02:15:52.069Z,99051.97
2023-03-14T02:18:19.744Z,99056.84
2023-03-14T02:21:04.158Z,99051.34
2023-03-14T02:23:38.573Z,99047.84
2023-03-14T02:26:13.748Z,99043.38
2023-03-14T02:28:40.497Z,99045.44
2023-03-14T02:31:07.090Z,99043.00
2023-03-14T02:33:33.632Z,99050.06
2023-03-14T02:36:03.003Z,99044.19
2023-03-14T02:38:40.707Z,99040.94
2023-03-14T02:41:07.573Z,99040.16
2023-03-14T02:43:34.327Z,99038.09
2023-03-14T02:46:02.362Z,99039.69
2023-03-14T02:48:37.120Z,99036.81
2023-03-14T02:51:03.795Z,99035.19
2023-03-14T02:53:35.779Z,99027.50
2023-03-14T02:56:02.399Z,99032.56
2023-03-14T02:58:29.848Z,99015.03
2023-03-14T03:00:56.525Z,99025.88
2023-03-14T03:03:23.275Z,99023.56
2023-03-14T03:05:51.985Z,99026.22
2023-03-14T03:08:20.470Z,99024.41
2023-03-14T03:10:47.193Z,99021.16
2023-03-14T03:13:13.666Z,99014.25
2023-03-14T03:15:40.744Z,99016.31
2023-03-14T03:18:07.865Z,99012.84
2023-03-14T03:20:34.370Z,99018.38
2023-03-14T03:23:01.231Z,99020.13
2023-03-14T03:25:28.072Z,98999.16
2023-03-14T03:27:55.137Z,99001.59
2023-03-14T03:30:22.084Z,98994.88
2023-03-14T03:32:48.941Z,98997.91
2023-03-14T03:35:15.704Z,99005.41
2023-03-14T03:37:42.183Z,99005.63
2023-03-14T03:40:09.968Z,98996.78
2023-03-14T03:42:37.035Z,98993.94
2023-03-14T03:45:04.466Z,98987.03
2023-03-14T03:47:32.539Z,98977.22
2023-03-14T03:49:59.010Z,98978.03
2023-03-14T03:52:25.494Z,98984.13
2023-03-14T03:54:51.960Z,98980.44
2023-03-14T03:57:18.464Z,98987.75
2023-03-14T03:59:44.908Z,98986.72
2023-03-14T04:02:11.384Z,98979.94
2023-03-14T04:04:39.246Z,98978.09
2023-03-14T04:07:06.813Z,98976.25
2023-03-14T04:09:33.376Z,98979.63
2023-03-14T04:11:59.827Z,98978.94
2023-03-14T04:14:26.384Z,98983.44
2023-03-14T04:16:52.863Z,98984.63
2023-03-14T04:19:19.293Z,98989.69
2023-03-14T04:21:46.861Z,98994.78
2023-03-14T04:24:14.024Z,98988.66
2023-03-14T04:26:40.645Z,98983.13
2023-03-14T04:29:07.120Z,98989.81
2023-03-14T04:31:33.621Z,98987.16
2023-03-14T04:34:00.111Z,98980.81
2023-03-14T04:36:26.575Z,98992.84
2023-03-14T04:38:53.006Z,98984.66
2023-03-14T04:41:19.477Z,98978.75
2023-03-14T04:43:46.036Z,98977.28
2023-03-14T04:46:12.571Z,98978.31
2023-03-14T04:48:39.312Z,98969.56
2023-03-14T04:51:06.141Z,98974.63
2023-03-14T04:53:33.136Z,98973.59
2023-03-14T04:55:59.767Z,98979.72
2023-03-14T04:58:26.232Z,98965.63
2023-03-14T05:00:52.841Z,98965.19
2023-03-14T05:03:19.963Z,98970.50
2023-03-14T05:05:47.121Z,98967.63
2023-03-14T05:08:13.827Z,98971.53
2023-03-14T05:10:40.383Z,98973.00
2023-03-14T05:13:06.876Z,98979.22
2023-03-14T05:15:33.435Z,98967.53
2023-03-14T05:17:59.941Z,98969.69
2023-03-14T05:20:26.768Z,98965.28
2023-03-14T05:22:53.192Z,98958.81
2023-03-14T05:25:19.720Z,98954.66
2023-03-14T05:27:46.289Z,98944.34
2023-03-14T05:30:13.149Z,98955.97
2023-03-14T05:32:39.705Z,98946.88
2023-03-14T05:35:06.351Z,98948.56
2023-03-14T05:37:32.912Z,98959.13
2023-03-14T05:39:59.375Z,98955.91
2023-03-14T05:42:25.843Z,98950.47
2023-03-14T05:44:52.318Z,98952.09
2023-03-14T05:47:18.799Z,98959.69
2023-03-14T05:49:45.276Z,98951.59
2023-03-14T05:52:11.766Z,98952.41
2023-03-14T05:54:38.222Z,98964.25
2023-03-14T05:57:04.692Z,98963.44
2023-03-14T05:59:31.328Z,98948.00
2023-03-14T06:01:57.792Z,98956.97
2023-03-14T06:04:25.986Z,98944.19
2023-03-14T06:06:52.553Z,98946.81
2023-03-14T06:09:20.999Z,98951.09
2023-03-14T06:11:47.484Z,98946.25
2023-03-14T06:14:14.130Z,98953.16
2023-03-14T06:16:40.626Z,98958.44
2023-03-14T06:19:07.140Z,98952.31
2023-03-14T06:21:33.618Z,98960.66
2023-03-14T06:24:00.166Z,98960.66
2023-03-14T06:26:27.536Z,98964.91
2023-03-14T06:28:54.807Z,98960.41
2023-03-14T06:31:21.546Z,98967.31
2023-03-14T06:33:48.155Z,98985.06
2023-03-14T06:36:14.657Z,98993.22
2023-03-14T06:38:41.121Z,99018.28
2023-03-14T06:41:08.699Z,99034.38
2023-03-14T06:43:35.206Z,99041.13
2023-03-14T06:46:01.831Z,99054.66
2023-03-14T06:48:28.297Z,99070.88
2023-03-14T06:50:54.924Z,99076.88
2023-03-14T06:53:21.546Z,99089.19
2023-03-14T06:55:48.215Z,99097.56
2023-03-14T06:58:14.949Z,99098.25
2023-03-14T07:00:41.442Z,99109.50
2023-03-14T07:03:07.962Z,99116.00
2023-03-14T07:05:34.555Z,99125.38
2023-03-14T07:08:01.099Z,99122.19
2023-03-14T07:10:27.538Z,99131.72
2023-03-14T07:12:54.753Z,99137.63
2023-03-14T07:15:21.322Z,99143.56
2023-03-14T07:17:51.119Z,99149.63
2023-03-14T07:20:17.810Z,99159.19
2023-03-14T07:22:44.276Z,99176.69
2023-03-14T07:25:12.984Z,99188.50
2023-03-14T07:27:39.688Z,99197.44
2023-03-14T07:30:06.935Z,99200.91
2023-03-14T07:32:33.815Z,99219.81
2023-03-14T07:35:00.371Z,99229.38
2023-03-14T07:37:26.931Z,99238.94
2023-03-14T07:39:53.427Z,99242.59
2023-03-14T07:42:19.955Z,99263.09
2023-03-14T07:44:46.453Z,99269.00
2023-03-14T07:47:13.032Z,99278.75
2023-03-14T07:49:39.873Z,99292.75
2023-03-14T07:52:06.396Z,99296.22
2023-03-14T07:54:33.002Z,99301.91
2023-03-14T07:57:02.473Z,99315.13
2023-03-14T07:59:29.135Z,99325.06
2023-03-14T08:01:55.658Z,99341.28
2023-03-14T08:04:22.195Z,99375.59
2023-03-14T08:06:48.729Z,99388.63
2023-03-14T08:09:16.349Z,99414.19
2023-03-14T08:11:42.928Z,99418.69
2023-03-14T08:14:10.082Z,99437.44
2023-03-14T08:16:36.670Z,99441.91
2023-03-14T08:19:03.307Z,99458.47
2023-03-14T08:21:29.784Z,99466.88
2023-03-14T08:23:56.315Z,99461.63
2023-03-14T08:26:22.808Z,99483.06
2023-03-14T08:28:49.255Z,99494.59
2023-03-14T08:31:15.897Z,99513.81
2023-03-14T08:33:43.782Z,99507.66
2023-03-14T08:36:10.703Z,99535.56
2023-03-14T08:38:37.313Z,99545.63
2023-03-14T08:41:04.901Z,99558.41
2023-03-14T08:43:31.759Z,99569.69
2023-03-14T08:45:59.273Z,99567.81
2023-03-14T08:48:25.792Z,99587.97
2023-03-14T08:50:52.235Z,99604.03
2023-03-14T08:53:19.543Z,99603.28
2023-03-14T08:55:45.989Z,99615.31
2023-03-14T08:58:12.433Z,99617.63
2023-03-14T09:00:39.130Z,99633.16
2023-03-14T09:03:05.687Z,99645.75
2023-03-14T09:05:35.210Z,99654.25
2023-03-14T09:08:02.346Z,99668.41
2023-03-14T09:10:28.800Z,99680.97
2023-03-14T09:12:55.320Z,99681.47
2023-03-14T09:15:21.777Z,99686.38
2023-03-14T09:17:48.224Z,99706.53
2023-03-14T09:20:15.552Z,99723.06
2023-03-14T09:22:42.510Z,99727.81
2023-03-14T09:25:09.627Z,99734.19
2023-03-14T09:27:36.473Z,99743.38
2023-03-14T09:30:04.730Z,99750.38
2023-03-14T09:32:32.718Z,99754.94
2023-03-14T09:34:59.363Z,99756.06
2023-03-14T09:37:26.116Z,99773.28
2023-03-14T09:39:52.704Z,99779.72
2023-03-14T09:42:24.028Z,99790.63
2023-03-14T09:45:09.096Z,99798.44
2023-03-14T09:47:39.498Z,99809.88
2023-03-14T09:50:14.405Z,99823.03
2023-03-14T09:52:43.900Z,99832.03
2023-03-14T09:55:22.313Z,99836.19
2023-03-14T09:57:51.665Z,99845.44
2023-03-14T10:00:24.501Z,99846.44
2023-03-14T10:02:57.959Z,99862.25
2023-03-14T10:05:26.110Z,99864.63
2023-03-14T10:07:52.615Z,99859.25
2023-03-14T10:10:26.847Z,99879.69
2023-03-14T10:13:09.404Z,99886.97
2023-03-14T10:15:36.747Z,99918.63
2023-03-14T10:18:13.572Z,99926.75
2023-03-14T10:20:43.411Z,99940.88
2023-03-14T10:23:12.912Z,99966.53
2023-03-14T10:25:59.169Z,99969.78
2023-03-14T10:28:27.122Z,99980.31
2023-03-14T10:30:53.750Z,99982.53
2023-03-14T10:33:33.084Z,99986.09
2023-03-14T10:36:16.976Z,99996.00
2023-03-14T10:38:44.251Z,99997.91
2023-03-14T10:41:32.636Z,100033.47
2023-03-14T10:44:00.962Z,100041.13
2023-03-14T10:46:32.262Z,100044.31
2023-03-14T10:48:58.814Z,100050.75
2023-03-14T10:51:27.794Z,100062.66
2023-03-14T10:54:13.118Z,100094.69
2023-03-14T10:56:39.739Z,100098.50
2023-03-14T10:59:15.560Z,100111.06
2023-03-14T11:01:55.262Z,100122.59
2023-03-14T11:04:56.406Z,100133.63
2023-03-14T11:07:43.023Z,100138.38
2023-03-14T11:10:32.770Z,100145.38
2023-03-14T11:13:07.853Z,100153.81
2023-03-14T11:16:02.748Z,100164.63
2023-03-14T11:18:50.651Z,100162.97
2023-03-14T11:21:27.467Z,100169.69
2023-03-14T11:24:29.112Z,100196.28
2023-03-14T11:27:06.298Z,100183.47
2023-03-14T11:29:41.428Z,100203.25
2023-03-14T11:32:43.126Z,100220.50
2023-03-14T11:35:23.620Z,100221.47
2023-03-14T11:38:03.342Z,100236.09
2023-03-14T11:40:30.623Z,100248.59
2023-03-14T11:43:43.806Z,100257.09
2023-03-14T11:46:18.556Z,100259.13
2023-03-14T11:49:08.010Z,100264.31
2023-03-14T11:51:38.895Z,100263.31
2023-03-14T11:54:17.289Z,100269.06
2023-03-14T11:56:47.610Z,100280.19
2023-03-14T11:59:28.516Z,100278.63
2023-03-14T12:02:06.690Z,100275.97
2023-03-14T12:04:38.410Z,100304.78
2023-03-14T12:07:15.934Z,100308.25
2023-03-14T12:09:43.047Z,100292.19
2023-03-14T12:12:15.052Z,100317.69
2023-03-14T12:14:51.959Z,100319.09
2023-03-14T12:17:35.772Z,100319.59
2023-03-14T12:20:07.644Z,100321.78
2023-03-14T12:22:42.162Z,100338.25
2023-03-14T12:25:26.731Z,100342.72
2023-03-14T12:27:56.260Z,100352.59
2023-03-14T12:30:29.381Z,100350.44
2023-03-14T12:33:18.805Z,100345.31
2023-03-14T12:35:50.871Z,100359.38
2023-03-14T12:38:28.669Z,100357.41
2023-03-14T12:41:21.421Z,100361.34
2023-03-14T12:43:48.316Z,100368.94
2023-03-14T12:46:27.266Z,100379.44
2023-03-14T12:49:08.505Z,100380.06
2023-03-14T12:51:40.813Z,100380.34
2023-03-14T12:54:28.800Z,100385.06
2023-03-14T12:57:22.785Z,100400.38
2023-03-14T12:59:53.589Z,100408.84
2023-03-14T13:02:24.888Z,100415.69
2023-03-14T13:05:02.588Z,100434.44
2023-03-14T13:07:46.941Z,100443.91
2023-03-14T13:10:22.685Z,100439.84
2023-03-14T13:12:51.869Z,100442.47
2023-03-14T13:15:26.899Z,100431.78
2023-03-14T13:17:59.912Z,100455.53
2023-03-14T13:20:33.591Z,100441.41
2023-03-14T13:23:00.287Z,100465.38
2023-03-14T13:25:31.369Z,100458.34
2023-03-14T13:27:58.444Z,100475.16
2023-03-14T13:30:36.362Z,100500.31
2023-03-14T13:33:05.848Z,100494.69
2023-03-14T13:35:44.754Z,100505.47
2023-03-14T13:38:18.098Z,100494.88
2023-03-14T13:40:46.398Z,100503.56
2023-03-14T13:43:20.293Z,100528.50
2023-03-14T13:45:51.535Z,100517.66
2023-03-14T13:48:19.339Z,100521.41
2023-03-14T13:50:59.466Z,100532.00
2023-03-14T13:53:26.465Z,100544.75
2023-03-14T13:55:53.598Z,100550.41
2023-03-14T13:58:32.371Z,100568.66
2023-03-14T14:01:25.236Z,100568.91
2023-03-14T14:03:55.594Z,100571.84
2023-03-14T14:06:31.004Z,100587.59
2023-03-14T14:09:01.608Z,100581.91
2023-03-14T14:11:59.265Z,100579.53
2023-03-14T14:14:41.383Z,100606.22
2023-03-14T14:17:13.497Z,100615.44
2023-03-14T14:19:42.438Z,100629.00
2023-03-14T14:22:11.293Z,100630.50
2023-03-14T14:24:39.407Z,100626.97
2023-03-14T14:27:18.375Z,100630.56
2023-03-14T14:29:56.973Z,100633.69
2023-03-14T14:32:23.946Z,100639.09
2023-03-14T14:34:56.203Z,100659.59
2023-03-14T14:37:31.523Z,100654.66
2023-03-14T14:40:00.591Z,100669.25
2023-03-14T14:42:33.914Z,100673.25
2023-03-14T14:45:01.006Z,100674.06
2023-03-14T14:47:29.548Z,100681.31
2023-03-14T14:50:00.889Z,100687.75
2023-03-14T14:52:44.591Z,100686.28
2023-03-14T14:55:18.663Z,100713.84
2023-03-14T14:57:53.793Z,100716.00
2023-03-14T15:00:23.491Z,100723.09
2023-03-14T15:02:55.198Z,100722.44
2023-03-14T15:05:27.707Z,100733.66
2023-03-14T15:07:54.706Z,100735.63
2023-03-14T15:10:24.281Z,100744.72
2023-03-14T15:12:50.882Z,100745.53
2023-03-14T15:15:18.827Z,100742.56
2023-03-14T15:17:45.690Z,100758.91
2023-03-14T15:20:15.737Z,100753.97
2023-03-14T15:22:42.837Z,100765.00
2023-03-14T15:25:18.594Z,100769.81
2023-03-14T15:27:53.777Z,100777.56
2023-03-14T15:30:20.715Z,100786.97
2023-03-14T15:32:48.320Z,100786.13
2023-03-14T15:35:17.632Z,100786.44
2023-03-14T15:37:44.963Z,100796.53
2023-03-14T15:40:15.961Z,100799.84
2023-03-14T15:42:42.762Z,100801.63
2023-03-14T15:45:10.217Z,100815.34
2023-03-14T15:47:37.092Z,100823.09
2023-03-14T15:50:04.298Z,100813.69
2023-03-14T15:52:30.736Z,100815.81
2023-03-14T15:54:57.298Z,100823.06
2023-03-14T15:57:24.107Z,100841.19
2023-03-14T15:59:50.844Z,100839.69
2023-03-14T16:02:17.404Z,100833.06
2023-03-14T16:04:44.800Z,100845.09
2023-03-14T16:07:11.502Z,100849.47
2023-03-14T16:09:37.953Z,100854.94
2023-03-14T16:12:05.961Z,100851.97
2023-03-14T16:14:32.518Z,100864.81
2023-03-14T16:17:00.324Z,100861.94
2023-03-14T16:19:27.266Z,100864.88
2023-03-14T16:21:53.816Z,100869.13
2023-03-14T16:24:20.476Z,100872.75
2023-03-14T16:26:48.527Z,100878.03
2023-03-14T16:29:15.070Z,100890.56
2023-03-14T16:31:43.304Z,100888.25
2023-03-14T16:34:10.661Z,100897.56
2023-03-14T16:36:37.488Z,100900.19
2023-03-14T16:39:04.631Z,100906.13
2023-03-14T16:41:31.779Z,100908.09
2023-03-14T16:43:59.326Z,100911.38
2023-03-14T16:46:28.412Z,100912.00
2023-03-14T16:48:55.286Z,100924.16
2023-03-14T16:51:22.552Z,100925.78
2023-03-14T16:53:49.284Z,100935.72
2023-03-14T16:56:16.329Z,100942.69
2023-03-14T16:58:43.571Z,100939.38
2023-03-14T17:01:12.632Z,100948.94
2023-03-14T17:03:44.438Z,100960.59
2023-03-14T17:06:12.934Z,100952.94
2023-03-14T17:08:39.473Z,100972.06
2023-03-14T17:11:06.879Z,100969.22
2023-03-14T17:13:33.425Z,100972.78
2023-03-14T17:16:01.287Z,100979.63
2023-03-14T17:18:29.967Z,100983.84
2023-03-14T17:20:57.416Z,100988.22
2023-03-14T17:23:26.036Z,100993.69
2023-03-14T17:25:52.587Z,100986.31
2023-03-14T17:28:20.641Z,100991.69
2023-03-14T17:30:47.101Z,101007.09
2023-03-14T17:33:14.237Z,100997.59
2023-03-14T17:35:42.432Z,101016.19
2023-03-14T17:38:09.015Z,101002.69
2023-03-14T17:40:36.325Z,101011.50
2023-03-14T17:43:02.840Z,101022.50
2023-03-14T17:45:29.380Z,101029.16
2023-03-14T17:47:55.857Z,101037.53
2023-03-14T17:50:22.388Z,101049.31
2023-03-14T17:52:48.924Z,101059.75
2023-03-14T17:55:15.633Z,101057.03
2023-03-14T17:57:44.794Z,101053.03
2023-03-14T18:00:13.185Z,101053.75
2023-03-14T18:02:41.815Z,101068.88
2023-03-14T18:05:09.321Z,101065.69
2023-03-14T18:07:37.530Z,101074.31
2023-03-14T18:10:06.293Z,101086.38
2023-03-14T18:12:33.195Z,101092.19
2023-03-14T18:14:59.808Z,101096.22
2023-03-14T18:17:26.263Z,101101.63
2023-03-14T18:19:52.867Z,101095.56
2023-03-14T18:22:19.402Z,101113.13
2023-03-14T18:24:45.865Z,101114.53
2023-03-14T18:27:12.477Z,101122.81
2023-03-14T18:29:39.088Z,101127.81
2023-03-14T18:32:05.822Z,101132.50
2023-03-14T18:34:33.258Z,101132.94
2023-03-14T18:36:59.906Z,101127.81
2023-03-14T18:39:26.423Z,101133.06
2023-03-14T18:41:52.939Z,101144.28
2023-03-14T18:44:19.538Z,101135.16
2023-03-14T18:46:46.211Z,101139.31
2023-03-14T18:49:14.034Z,101145.66
2023-03-14T18:51:40.586Z,101144.53
2023-03-14T18:54:09.966Z,101143.84
2023-03-14T18:56:38.614Z,101153.53
2023-03-14T18:59:05.274Z,101151.03
2023-03-14T19:01:34.046Z,101152.69
2023-03-14T19:04:00.671Z,101150.34
2023-03-14T19:06:29.015Z,101156.56
2023-03-14T19:08:55.534Z,101166.09
2023-03-14T19:11:21.984Z,101158.50
2023-03-14T19:13:48.532Z,101162.50
2023-03-14T19:16:16.101Z,101157.41
2023-03-14T19:18:42.967Z,101161.28
2023-03-14T19:21:13.196Z,101157.38
2023-03-14T19:23:42.298Z,101156.41
2023-03-14T19:26:09.933Z,101161.13
2023-03-14T19:28:36.834Z,101162.03
2023-03-14T19:31:04.859Z,101167.72
2023-03-14T19:33:32.107Z,101159.78
2023-03-14T19:35:58.827Z,101160.75
2023-03-14T19:38:25.480Z,101155.06
2023-03-14T19:40:58.139Z,101148.56
2023-03-14T19:43:25.465Z,101160.81
2023-03-14T19:45:52.092Z,101153.22
2023-03-14T19:48:18.623Z,101154.19
2023-03-14T19:50:45.108Z,101173.63
2023-03-14T19:53:11.618Z,101167.56
2023-03-14T19:55:38.234Z,101177.34
2023-03-14T19:58:05.350Z,101160.22
2023-03-14T20:00:32.273Z,101169.50
2023-03-14T20:02:59.105Z,101177.91
2023-03-14T20:05:25.743Z,101183.16
2023-03-14T20:07:52.203Z,101182.34
2023-03-14T20:10:22.692Z,101187.84
2023-03-14T20:12:50.956Z,101203.47
2023-03-14T20:15:19.557Z,101217.34
2023-03-14T20:17:47.047Z,101218.53
2023-03-14T20:20:14.061Z,101239.25
2023-03-14T20:22:41.687Z,101233.78
2023-03-14T20:25:13.980Z,101232.41
2023-03-14T20:27:41.449Z,101226.91
2023-03-14T20:30:12.830Z,101225.84
2023-03-14T20:32:43.009Z,101223.47
2023-03-14T20:35:11.773Z,101228.72
2023-03-14T20:37:38.838Z,101230.66
2023-03-14T20:40:11.379Z,101232.31
2023-03-14T20:42:39.068Z,101228.84
2023-03-14T20:45:06.833Z,101239.59
2023-03-14T20:47:34.606Z,101259.19
2023-03-14T20:50:01.707Z,101246.22
2023-03-14T20:52:28.435Z,101260.31
2023-03-14T20:54:54.989Z,101248.66
2023-03-14T20:57:21.457Z,101244.81
2023-03-14T20:59:48.001Z,101243.00
2023-03-14T21:02:20.420Z,101248.13
2023-03-14T21:04:47.329Z,101240.09
2023-03-14T21:07:14.225Z,101251.41
2023-03-14T21:09:40.823Z,101239.75
2023-03-14T21:12:07.525Z,101244.88
2023-03-14T21:14:34.001Z,101230.63
2023-03-14T21:17:00.612Z,101246.56
2023-03-14T21:19:30.716Z,101235.34
2023-03-14T21:21:58.605Z,101229.00
2023-03-14T21:24:25.679Z,101229.00
2023-03-14T21:26:55.427Z,101233.44
2023-03-14T21:29:22.432Z,101232.06
2023-03-14T21:31:49.756Z,101231.00
2023-03-14T21:34:16.592Z,101224.50
2023-03-14T21:36:43.409Z,101226.63
2023-03-14T21:39:09.916Z,101230.22
2023-03-14T21:41:36.424Z,101227.31
2023-03-14T21:44:02.951Z,101228.03
2023-03-14T21:46:29.474Z,101227.19
2023-03-14T21:48:55.974Z,101232.75
2023-03-14T21:51:29.800Z,101226.53
2023-03-14T21:53:56.245Z,101216.31
2023-03-14T21:56:26.856Z,101224.50
2023-03-14T21:58:55.703Z,101220.78
2023-03-14T22:01:23.200Z,101215.69
2023-03-14T22:03:49.712Z,101222.44
2023-03-14T22:06:16.226Z,101229.25
2023-03-14T22:08:42.682Z,101229.09
2023-03-14T22:11:09.153Z,101244.59
2023-03-14T22:13:35.594Z,101242.81
2023-03-14T22:16:02.147Z,101258.03
2023-03-14T22:18:30.230Z,101248.06
2023-03-14T22:20:57.185Z,101252.50
2023-03-14T22:23:23.708Z,101276.28
2023-03-14T22:25:50.449Z,101288.34
2023-03-14T22:28:21.313Z,101302.88
2023-03-14T22:30:49.375Z,101326.00
2023-03-14T22:33:17.085Z,101330.56
2023-03-14T22:35:48.143Z,101345.09
2023-03-14T22:38:14.702Z,101370.03
2023-03-14T22:40:41.132Z,101350.72
2023-03-14T22:43:07.673Z,101348.91
2023-03-14T22:45:34.195Z,101372.69
2023-03-14T22:48:00.728Z,101360.84
2023-03-14T22:50:27.564Z,101359.56
2023-03-14T22:52:54.755Z,101364.78
2023-03-14T22:55:21.296Z,101362.28
2023-03-14T22:57:51.832Z,101368.22
2023-03-14T23:00:18.639Z,101379.63
2023-03-14T23:02:45.184Z,101370.81
2023-03-14T23:05:11.659Z,101372.59
2023-03-14T23:07:38.126Z,101381.03
2023-03-14T23:10:05.049Z,101386.28
2023-03-14T23:12:31.503Z,101393.19
2023-03-14T23:14:58.307Z,101393.41
2023-03-14T23:17:25.595Z,101381.50
2023-03-14T23:19:53.909Z,101382.00
2023-03-14T23:22:21.122Z,101362.00
2023-03-14T23:24:48.756Z,101373.31
2023-03-14T23:27:17.515Z,101388.19
2023-03-14T23:29:46.630Z,101402.22
2023-03-14T23:32:15.421Z,101401.63
2023-03-14T23:34:43.225Z,101394.22
2023-03-14T23:37:13.891Z,101409.66
2023-03-14T23:39:43.984Z,101412.97
2023-03-14T23:42:10.608Z,101416.25
2023-03-14T23:44:37.387Z,101402.19
2023-03-14T23:47:03.964Z,101410.88
2023-03-14T23:49:30.911Z,101416.56
2023-03-14T23:51:57.404Z,101409.03
2023-03-14T23:54:24.340Z,101405.38
2023-03-14T23:56:51.109Z,101401.69
2023-03-14T23:59:17.581Z,101393.03
